Saint Joseph, Tennessee
Current Conditions -  °F | °C
As of 6:53 PM on Friday 24 Oct 2014 (Local Time) from KMSL Reporting Station
Clear Clear  
Wind Chill: 62°   Ceiling: Unl
Heat Index: 62°   Visibility: 10mi
Dew Point: 46°   Wind: 6mph
Humidity: 56%   Direction: 320°NW
Pressure: 30.09"   Gusts: NA
Location:  35.04°N, 87.51°W
Report Text: KMSL 242353Z AUTO 32005KT 10SM CLR 17/08 A3009 RMK AO2 SLP187 T01670078 10239 20167 53006
Loading
Personal Weather Stations






























Interactive Weather Map
Tropical Storm Tracking
New forecast layout! Learn more

10-Day Weather Forecast

Advertisements
Track Severe Weather on mobile